createdAt,value
2019-04-27T00:04:35.370Z,4.53
2019-04-27T00:09:34.680Z,4.27
2019-04-27T00:14:32.947Z,3.57
2019-04-27T00:19:35.170Z,4.10
2019-04-27T00:24:28.341Z,4.53
2019-04-27T00:29:23.630Z,4.17
2019-04-27T00:34:19.906Z,3.87
2019-04-27T00:39:33.029Z,6.00
2019-04-27T00:44:27.665Z,4.00
2019-04-27T00:49:23.784Z,4.70
2019-04-27T00:54:18.096Z,4.60
2019-04-27T00:59:32.930Z,4.67
2019-04-27T01:04:28.412Z,4.40
2019-04-27T01:09:23.959Z,4.60
2019-04-27T01:14:19.345Z,4.83
2019-04-27T01:19:15.304Z,4.93
2019-04-27T01:24:09.511Z,5.47
2019-04-27T01:34:09.246Z,5.77
2019-04-27T01:39:04.530Z,5.83
2019-04-27T01:43:59.237Z,6.27
2019-04-27T01:48:53.602Z,7.40
2019-04-27T01:53:49.196Z,7.60
2019-04-27T01:58:43.421Z,7.07
2019-04-27T02:03:45.326Z,6.77
2019-04-27T02:08:40.324Z,7.17
2019-04-27T02:18:36.934Z,7.70
2019-04-27T02:23:24.925Z,6.73
2019-04-27T02:28:27.037Z,7.07
2019-04-27T02:33:41.062Z,6.27
2019-04-27T02:38:35.829Z,6.37
2019-04-27T02:43:44.781Z,6.83
2019-04-27T02:48:52.942Z,5.53
2019-04-27T02:58:49.622Z,5.83
2019-04-27T03:03:43.888Z,5.73
2019-04-27T03:08:39.761Z,6.27
2019-04-27T03:13:44.830Z,6.70
2019-04-27T03:18:43.783Z,6.80
2019-04-27T03:28:32.594Z,6.50
2019-04-27T03:33:27.014Z,7.43
2019-04-27T03:38:22.325Z,8.40
2019-04-27T03:43:20.004Z,8.50
2019-04-27T03:58:23.275Z,8.50
2019-04-27T04:03:20.121Z,8.40
2019-04-27T04:08:15.396Z,9.00
2019-04-27T04:13:17.315Z,8.40
2019-04-27T04:18:12.173Z,8.80
2019-04-27T04:23:10.378Z,8.67
2019-04-27T04:28:09.412Z,8.83
2019-04-27T04:33:07.140Z,9.10
2019-04-27T04:48:10.535Z,9.10
2019-04-27T04:53:11.740Z,10.73
2019-04-27T04:58:09.319Z,9.77
2019-04-27T05:03:06.884Z,10.90
2019-04-27T05:17:51.092Z,11.00
2019-04-27T05:22:45.447Z,10.07
2019-04-27T05:27:40.762Z,10.27
2019-04-27T05:32:35.451Z,10.47
2019-04-27T05:37:31.735Z,10.60
2019-04-27T05:42:26.207Z,9.73
2019-04-27T05:47:23.590Z,13.43
2019-04-27T05:52:30.609Z,9.63
2019-04-27T05:57:24.982Z,13.37
2019-04-27T06:02:23.240Z,12.50
2019-04-27T06:07:16.245Z,10.57
2019-04-27T06:12:11.383Z,10.33
2019-04-27T06:17:05.974Z,9.93
2019-04-27T06:22:01.331Z,9.13
2019-04-27T06:26:55.694Z,9.33
2019-04-27T06:31:52.555Z,8.83
2019-04-27T06:36:49.312Z,8.20
2019-04-27T06:41:43.821Z,9.00
2019-04-27T06:46:41.846Z,9.77
2019-04-27T06:51:36.211Z,9.23
2019-04-27T06:56:30.912Z,9.97
2019-04-27T07:01:25.213Z,10.63
2019-04-27T07:06:19.423Z,9.23
2019-04-27T07:11:14.194Z,10.20
2019-04-27T07:16:09.633Z,11.17
2019-04-27T07:21:16.976Z,10.80
2019-04-27T07:26:07.161Z,11.33
2019-04-27T07:31:02.047Z,10.03
2019-04-27T07:35:56.487Z,9.93
2019-04-27T07:40:54.461Z,13.70
2019-04-27T07:45:49.430Z,9.73
2019-04-27T07:50:43.837Z,9.67
2019-04-27T07:55:39.466Z,9.57
2019-04-27T08:00:36.642Z,9.37
2019-04-27T08:05:31.199Z,9.27
2019-04-27T08:10:25.486Z,9.77
2019-04-27T08:15:19.680Z,9.10
2019-04-27T08:20:14.095Z,9.40
2019-04-27T08:25:09.426Z,11.53
2019-04-27T08:30:09.463Z,13.57
2019-04-27T08:35:05.112Z,11.57
2019-04-27T08:39:59.782Z,11.50
2019-04-27T08:44:54.066Z,10.50
2019-04-27T08:49:49.157Z,11.20
2019-04-27T08:54:43.658Z,15.27
2019-04-27T09:09:36.350Z,12.73
2019-04-27T09:14:32.068Z,14.40
2019-04-27T09:19:40.810Z,14.43
2019-04-27T09:24:35.028Z,14.03
2019-04-27T09:29:30.736Z,12.00
2019-04-27T09:34:26.069Z,19.07
2019-04-27T09:39:20.458Z,13.37
2019-04-27T09:44:15.999Z,13.40
2019-04-27T09:54:05.852Z,9.43
2019-04-27T09:59:00.013Z,11.00
2019-04-27T10:18:33.838Z,9.23
2019-04-27T10:23:27.944Z,7.57
2019-04-27T10:28:22.846Z,9.23
2019-04-27T10:33:18.104Z,8.60
2019-04-27T10:38:12.661Z,8.13
2019-04-27T10:43:08.405Z,6.80
2019-04-27T10:48:04.623Z,8.50
2019-04-27T10:52:59.313Z,7.73
2019-04-27T10:57:57.576Z,5.03
2019-04-27T11:02:52.297Z,5.30
2019-04-27T11:07:48.108Z,5.97
2019-04-27T11:12:42.192Z,4.93
2019-04-27T11:17:37.110Z,4.27
2019-04-27T11:22:32.122Z,7.43
2019-04-27T11:27:26.522Z,8.63
2019-04-27T11:32:20.633Z,10.93
2019-04-27T11:37:16.863Z,8.73
2019-04-27T11:42:11.070Z,10.07
2019-04-27T11:47:07.208Z,10.20
2019-04-27T11:52:01.711Z,9.43
2019-04-27T11:56:56.773Z,8.67
2019-04-27T12:01:50.942Z,10.97
2019-04-27T12:06:46.267Z,7.50
2019-04-27T12:11:40.560Z,6.17
2019-04-27T12:16:36.151Z,4.07
2019-04-27T12:21:30.379Z,4.00
2019-04-27T12:26:36.283Z,4.10
2019-04-27T12:31:35.894Z,5.13
2019-04-27T12:36:31.203Z,2.53
2019-04-27T12:41:28.372Z,2.67
2019-04-27T12:46:22.870Z,3.63
2019-04-27T12:51:17.272Z,5.23
2019-04-27T12:56:26.626Z,9.47
2019-04-27T13:01:25.857Z,3.70
2019-04-27T13:06:20.269Z,4.47
2019-04-27T13:11:16.104Z,4.30
2019-04-27T13:16:11.215Z,3.20
2019-04-27T13:21:06.482Z,3.40
2019-04-27T13:26:01.128Z,3.30
2019-04-27T13:30:55.988Z,2.80
2019-04-27T13:35:50.439Z,3.10
2019-04-27T13:40:45.888Z,2.60
2019-04-27T13:45:58.505Z,1.90
2019-04-27T13:51:11.228Z,2.33
2019-04-27T13:56:18.255Z,2.00
2019-04-27T14:01:12.639Z,2.30
2019-04-27T14:06:08.100Z,2.07
2019-04-27T14:11:04.817Z,2.60
2019-04-27T14:15:59.630Z,2.20
2019-04-27T14:20:53.718Z,2.33
2019-04-27T14:25:47.949Z,3.10
2019-04-27T14:30:42.331Z,2.40
2019-04-27T14:35:38.669Z,2.67
2019-04-27T14:40:32.980Z,2.57
2019-04-27T14:45:28.614Z,2.63
2019-04-27T14:50:23.204Z,7.07
2019-04-27T14:55:17.606Z,5.97
2019-04-27T15:00:13.662Z,7.30
2019-04-27T15:05:07.945Z,6.10
2019-04-27T15:10:02.003Z,5.67
2019-04-27T15:14:57.262Z,6.00
2019-04-27T15:19:57.062Z,6.00
2019-04-27T15:25:07.701Z,5.93
2019-04-27T15:29:47.025Z,6.37
2019-04-27T15:34:43.065Z,5.43
2019-04-27T15:39:57.837Z,6.70
2019-04-27T15:44:52.356Z,5.97
2019-04-27T15:49:51.110Z,4.93
2019-04-27T15:54:42.279Z,6.77
2019-04-27T15:59:39.634Z,8.10
2019-04-27T16:04:34.494Z,6.67
2019-04-27T16:09:28.382Z,7.60
2019-04-27T16:14:22.764Z,7.30
2019-04-27T16:19:18.558Z,7.43
2019-04-27T16:24:16.861Z,6.00
2019-04-27T22:07:49.167Z,1.77
2019-04-27T22:29:55.835Z,0.70
2019-04-27T22:41:07.694Z,1.40
2019-04-27T22:46:22.243Z,0.80
2019-04-27T22:51:20.772Z,0.70
2019-04-27T23:08:24.088Z,0.70
2019-04-27T23:36:42.316Z,10.00
